Time;durP1;ratioP1;P1;durP2;ratioP2;P2;SDS_P1;SDS_P2;PMS_P1;PMS_P2;Temp;Humidity;BMP_temperature;BMP_pressure;BME280_temperature;BME280_humidity;BME280_pressure;Samples;Min_cycle;Max_cycle;Signal;HPM_P1;HPM_P2
2022/03/23 00:00:19;;;;;;;19.97;8.90;;;4.80;97.40;;;5.54;90.57;99467.34;5014319;28;20892;-80
2022/03/23 00:02:50;;;;;;;15.63;9.00;;;4.70;97.70;;;5.52;91.54;99459.66;5017495;28;20841;-80
2022/03/23 00:05:20;;;;;;;23.20;8.63;;;4.70;97.70;;;5.48;91.86;99468.63;5018556;28;20562;-79
2022/03/23 00:07:50;;;;;;;13.00;8.43;;;4.70;97.70;;;5.49;91.23;99466.88;5017791;28;20811;-80
2022/03/23 00:10:20;;;;;;;15.47;8.90;;;4.70;97.60;;;5.49;91.43;99465.09;5014623;28;20498;-80
2022/03/23 00:12:51;;;;;;;18.03;8.40;;;4.60;97.80;;;5.51;91.76;99458.03;5017657;28;20547;-80
2022/03/23 00:15:22;;;;;;;14.70;9.13;;;4.60;97.90;;;5.48;91.35;99458.25;5016425;28;20461;-80
2022/03/23 00:17:53;;;;;;;17.57;9.80;;;4.60;97.70;;;5.42;91.39;99458.75;5016678;28;21169;-80
2022/03/23 00:20:24;;;;;;;12.20;8.20;;;4.60;97.70;;;5.39;91.82;99453.78;5014756;28;20462;-80
2022/03/23 00:22:54;;;;;;;17.30;9.47;;;4.60;97.70;;;5.37;91.84;99458.28;5015100;28;20475;-80
2022/03/23 00:25:24;;;;;;;14.50;9.53;;;4.60;97.50;;;5.35;91.94;99461.91;5015246;28;20458;-79
2022/03/23 00:27:53;;;;;;;17.40;9.60;;;4.60;97.80;;;5.30;91.32;99459.72;5014490;28;20840;-80
2022/03/23 00:30:23;;;;;;;12.17;7.90;;;4.50;97.50;;;5.29;91.88;99467.59;5016064;28;20857;-79
2022/03/23 00:32:55;;;;;;;13.27;8.80;;;4.40;97.80;;;5.27;92.17;99461.72;5015858;28;20516;-80
2022/03/23 00:35:24;;;;;;;23.33;8.77;;;4.40;97.90;;;5.23;92.36;99473.25;5015618;28;20472;-80
2022/03/23 00:37:54;;;;;;;17.17;9.03;;;4.40;97.90;;;5.22;92.32;99469.84;5017379;28;20503;-80
2022/03/23 00:40:24;;;;;;;15.17;8.60;;;4.40;98.00;;;5.21;92.28;99460.41;5016586;28;20458;-80
2022/03/23 00:42:54;;;;;;;17.03;9.20;;;4.30;98.00;;;5.22;92.72;99464.66;5016335;28;20474;-79
2022/03/23 00:45:24;;;;;;;19.63;8.90;;;4.30;98.00;;;5.18;92.01;99463.22;5016697;28;20467;-80
2022/03/23 00:47:56;;;;;;;12.80;7.70;;;4.40;97.60;;;5.12;92.11;99466.31;5014830;28;20468;-80
2022/03/23 00:50:26;;;;;;;20.97;9.40;;;4.30;98.00;;;5.05;92.39;99470.31;5016184;28;20532;-80
2022/03/23 00:52:57;;;;;;;14.97;9.57;;;4.20;98.10;;;5.04;92.78;99466.88;5013763;28;20459;-80
2022/03/23 00:55:26;;;;;;;15.10;9.80;;;4.20;98.30;;;5.00;92.94;99473.22;5016050;28;20474;-80
2022/03/23 00:57:56;;;;;;;17.90;8.80;;;4.10;98.00;;;5.05;93.39;99467.72;5013872;28;21177;-80
2022/03/23 01:00:25;;;;;;;11.93;8.30;;;4.10;98.40;;;5.02;93.43;99466.19;5015863;28;20469;-80
2022/03/23 01:02:57;;;;;;;17.17;9.27;;;4.10;98.30;;;5.01;93.00;99463.69;5014666;28;20495;-80
2022/03/23 01:05:26;;;;;;;17.60;8.43;;;4.10;98.30;;;4.95;93.53;99462.41;5014646;28;20895;-80
2022/03/23 01:07:55;;;;;;;14.53;9.40;;;4.10;98.00;;;4.88;93.85;99463.81;5015881;28;20460;-80
2022/03/23 01:10:25;;;;;;;13.50;8.53;;;4.00;98.40;;;4.81;93.88;99457.44;5014650;28;20465;-80
2022/03/23 01:12:55;;;;;;;17.63;10.03;;;4.00;98.10;;;4.82;94.18;99458.28;5013998;28;20956;-80
2022/03/23 01:15:25;;;;;;;16.17;8.67;;;4.00;98.40;;;4.81;94.51;99457.44;5014759;28;20896;-80
2022/03/23 01:17:55;;;;;;;19.50;9.13;;;4.00;98.30;;;4.78;94.37;99459.44;5014834;28;20465;-80
2022/03/23 01:20:25;;;;;;;18.67;10.40;;;4.00;98.20;;;4.78;94.77;99452.50;5014783;28;20462;-80
2022/03/23 01:22:54;;;;;;;15.13;9.37;;;3.90;98.60;;;4.75;95.13;99452.72;5017256;28;20486;-80
2022/03/23 01:25:25;;;;;;;18.37;8.30;;;3.90;98.60;;;4.68;95.55;99453.31;5017125;28;20484;-80
2022/03/23 01:27:56;;;;;;;14.23;8.87;;;3.70;98.70;;;4.62;95.29;99462.34;5013616;28;20858;-80
2022/03/23 01:30:27;;;;;;;13.60;8.87;;;3.70;98.50;;;4.60;95.44;99453.03;5017378;28;20463;-80
2022/03/23 01:32:57;;;;;;;16.50;9.80;;;3.80;98.30;;;4.57;95.55;99454.94;5015684;28;20472;-80
2022/03/23 01:35:27;;;;;;;16.60;8.90;;;3.80;98.60;;;4.51;95.55;99450.19;5017684;28;20470;-80
2022/03/23 01:37:58;;;;;;;21.03;9.00;;;3.70;98.50;;;4.48;95.88;99450.41;5017322;28;20461;-80
2022/03/23 01:40:28;;;;;;;14.13;8.90;;;3.70;98.70;;;4.50;96.79;99445.97;5019541;28;20485;-80
2022/03/23 01:42:58;;;;;;;11.93;7.27;;;3.60;98.90;;;4.47;95.68;99448.78;5015035;28;20540;-79
2022/03/23 01:45:27;;;;;;;12.90;8.43;;;3.70;98.50;;;4.45;96.14;99442.88;5014541;28;20469;-80
2022/03/23 01:47:58;;;;;;;14.50;8.60;;;3.60;98.70;;;4.42;96.29;99445.69;5013422;28;20531;-80
2022/03/23 01:50:28;;;;;;;16.20;9.60;;;3.60;98.70;;;4.36;96.47;99451.34;5014654;28;21008;-80
2022/03/23 01:52:57;;;;;;;17.00;10.07;;;3.60;98.70;;;4.26;97.11;99445.19;5012379;28;20478;-80
2022/03/23 01:55:27;;;;;;;14.53;9.20;;;3.40;98.90;;;4.21;97.86;99442.09;5014183;28;20480;-79
2022/03/23 01:57:57;;;;;;;15.23;9.40;;;3.40;99.10;;;4.19;98.05;99451.75;5013841;28;20465;-80
2022/03/23 02:00:28;;;;;;;17.40;8.70;;;3.30;99.20;;;4.16;98.21;99449.41;5012167;28;20717;-80
2022/03/23 02:03:00;;;;;;;20.03;10.23;;;3.40;99.00;;;4.12;99.17;99445.38;5011684;28;20553;-80
2022/03/23 02:05:30;;;;;;;14.93;9.40;;;3.30;99.50;;;4.15;98.75;99447.72;5012862;28;20533;-80
2022/03/23 02:07:59;;;;;;;16.83;8.50;;;3.30;99.10;;;4.13;98.59;99448.78;5012221;28;20727;-80
2022/03/23 02:10:29;;;;;;;20.30;10.67;;;3.40;99.20;;;4.11;98.47;99448.06;5013344;28;20963;-80
2022/03/23 02:13:00;;;;;;;16.30;9.20;;;3.30;98.90;;;4.05;98.55;99447.59;5015201;28;20468;-79
2022/03/23 02:15:30;;;;;;;20.07;8.70;;;3.30;99.00;;;4.02;99.12;99442.63;5017327;28;20492;-80
2022/03/23 02:18:01;;;;;;;17.90;8.83;;;3.30;98.90;;;4.05;99.20;99449.34;5016505;28;20620;-80
2022/03/23 02:20:29;;;;;;;15.63;9.77;;;3.20;99.50;;;4.06;99.31;99440.66;5016872;28;20883;-79
2022/03/23 02:23:02;;;;;;;12.87;8.87;;;3.20;99.20;;;4.05;99.11;99439.81;5018183;28;20489;-80
2022/03/23 02:25:33;;;;;;;17.10;9.43;;;3.20;99.20;;;4.01;98.93;99446.16;5017180;28;20899;-80
2022/03/23 02:28:02;;;;;;;16.80;10.20;;;3.20;99.20;;;3.99;99.10;99442.03;5014627;28;20538;-80
2022/03/23 02:30:33;;;;;;;16.37;8.77;;;3.20;99.20;;;3.96;99.68;99445.66;5016418;28;21248;-80
2022/03/23 02:33:02;;;;;;;18.60;9.40;;;3.10;99.40;;;3.93;99.53;99442.44;5016299;28;21014;-80
2022/03/23 02:35:31;;;;;;;18.50;8.60;;;3.10;99.20;;;3.88;99.50;99450.56;5013266;28;20562;-80
2022/03/23 02:38:02;;;;;;;15.00;8.70;;;3.20;99.00;;;3.88;100.00;99447.97;5014800;28;20511;-80
2022/03/23 02:40:32;;;;;;;22.67;9.63;;;3.10;99.40;;;3.89;100.00;99439.25;5014324;28;20475;-80
2022/03/23 02:43:01;;;;;;;13.97;8.83;;;3.00;99.40;;;3.86;100.00;99443.81;5016214;28;20463;-79
2022/03/23 02:45:31;;;;;;;15.67;8.63;;;3.00;99.50;;;3.84;100.00;99443.97;5013646;28;20548;-80
2022/03/23 02:48:03;;;;;;;16.47;8.53;;;3.00;99.30;;;3.85;100.00;99444.78;5013345;28;20460;-80
2022/03/23 02:50:33;;;;;;;18.43;10.30;;;3.00;99.80;;;3.84;100.00;99446.53;5013741;28;20463;-80
2022/03/23 03:01:53;;;;;;;14.10;9.10;;;3.00;99.40;;;3.79;99.69;99450.38;4982946;28;20936;-80
2022/03/23 03:04:25;;;;;;;13.00;8.43;;;3.00;99.20;;;3.77;99.82;99452.25;5014028;28;20502;-80
2022/03/23 03:06:57;;;;;;;14.40;9.07;;;3.00;99.30;;;3.77;100.00;99453.09;5014072;28;20466;-80
2022/03/23 03:09:29;;;;;;;14.43;8.90;;;2.90;99.50;;;3.73;100.00;99449.06;5013992;28;20497;-79
2022/03/23 03:11:59;;;;;;;18.90;10.03;;;2.80;99.60;;;3.69;100.00;99451.97;5011753;28;20721;-80
2022/03/23 03:14:29;;;;;;;15.03;9.40;;;2.80;99.40;;;3.62;100.00;99453.34;5012855;28;21065;-79
2022/03/23 03:16:59;;;;;;;17.17;8.80;;;2.70;99.80;;;3.59;100.00;99454.38;5015942;28;20469;-80
2022/03/23 03:19:29;;;;;;;16.60;9.13;;;2.80;99.60;;;3.55;100.00;99461.53;5017679;28;20510;-80
2022/03/23 03:21:59;;;;;;;14.30;8.60;;;2.80;99.30;;;3.49;100.00;99458.56;5012729;28;20554;-80
2022/03/23 03:24:31;;;;;;;13.60;8.50;;;2.80;99.40;;;3.44;100.00;99461.47;5015020;28;20851;-80
2022/03/23 03:27:01;;;;;;;13.90;8.57;;;2.70;99.40;;;3.38;100.00;99461.88;5012109;28;20462;-80
2022/03/23 03:29:30;;;;;;;30.10;9.13;;;2.60;99.80;;;3.39;100.00;99468.72;5015105;28;20467;-80
2022/03/23 03:32:00;;;;;;;15.13;9.73;;;2.60;99.90;;;3.37;100.00;99460.22;5015365;28;20454;-80
2022/03/23 03:34:31;;;;;;;18.57;10.30;;;2.50;99.90;;;3.30;100.00;99464.16;5016641;28;20468;-80
2022/03/23 03:37:01;;;;;;;13.73;8.43;;;2.50;99.90;;;3.29;100.00;99464.28;5015292;28;20464;-80
2022/03/23 03:39:31;;;;;;;14.57;8.60;;;2.40;99.90;;;3.35;100.00;99472.44;5011266;28;20489;-79
2022/03/23 03:42:01;;;;;;;16.87;9.60;;;2.40;99.90;;;3.37;100.00;99470.56;5008183;28;20570;-80
2022/03/23 03:44:31;;;;;;;14.37;8.83;;;2.50;99.90;;;3.36;100.00;99474.09;5015356;28;20507;-80
2022/03/23 03:47:02;;;;;;;15.77;9.37;;;2.50;99.90;;;3.32;100.00;99472.66;5013878;28;20459;-79
2022/03/23 03:49:34;;;;;;;18.60;9.63;;;2.50;99.90;;;3.29;100.00;99472.88;5013160;28;21076;-79
2022/03/23 03:52:04;;;;;;;13.63;8.50;;;2.40;99.90;;;3.30;100.00;99474.50;5012160;28;20466;-80
2022/03/23 03:54:35;;;;;;;17.97;10.20;;;2.50;99.90;;;3.27;100.00;99473.91;5012798;28;20482;-80
2022/03/23 03:57:06;;;;;;;16.20;9.30;;;2.50;99.80;;;3.27;100.00;99479.06;5012438;28;21358;-80
2022/03/23 03:59:37;;;;;;;17.70;8.50;;;2.40;99.90;;;3.25;100.00;99474.03;5013720;28;20466;-79
2022/03/23 04:02:07;;;;;;;17.27;9.67;;;2.30;99.90;;;3.25;100.00;99473.19;5010430;28;20517;-79
2022/03/23 04:04:37;;;;;;;18.20;8.57;;;2.30;99.90;;;3.20;100.00;99478.66;5013536;28;20837;-79
2022/03/23 04:07:06;;;;;;;20.87;10.50;;;2.40;99.80;;;3.18;100.00;99487.47;5013191;28;21175;-79
2022/03/23 04:09:39;;;;;;;15.40;8.80;;;2.40;99.90;;;3.20;100.00;99483.84;5012344;28;20463;-79
2022/03/23 04:12:10;;;;;;;12.33;8.67;;;2.30;99.90;;;3.23;100.00;99483.63;5011547;28;20466;-79
2022/03/23 04:14:41;;;;;;;16.50;9.60;;;2.40;99.90;;;3.23;100.00;99477.66;5013954;28;20833;-79
2022/03/23 04:17:11;;;;;;;15.90;8.97;;;2.40;99.90;;;3.23;100.00;99477.66;5013876;28;20477;-79
2022/03/23 04:19:41;;;;;;;18.77;9.60;;;2.30;99.90;;;3.21;100.00;99477.75;5013889;28;20958;-79
2022/03/23 04:22:11;;;;;;;15.27;8.70;;;2.30;99.90;;;3.22;100.00;99481.16;5012499;28;20462;-79
2022/03/23 04:24:42;;;;;;;19.80;9.43;;;2.30;99.90;;;3.21;100.00;99480.31;5013922;28;20455;-79
2022/03/23 04:27:13;;;;;;;17.50;10.00;;;2.20;99.90;;;3.22;100.00;99482.00;5015113;28;20540;-79
2022/03/23 04:29:42;;;;;;;22.30;9.90;;;2.30;99.90;;;3.22;100.00;99487.16;5018659;28;21029;-79
2022/03/23 04:32:11;;;;;;;14.53;8.13;;;2.20;99.90;;;3.22;100.00;99489.75;5016953;28;20460;-79
2022/03/23 04:34:42;;;;;;;13.10;8.00;;;2.20;99.90;;;3.23;100.00;99493.16;5018092;28;20505;-79
2022/03/23 04:37:11;;;;;;;15.53;8.80;;;2.30;99.90;;;3.21;100.00;99482.91;5015472;28;20462;-79
2022/03/23 04:39:43;;;;;;;11.63;7.90;;;2.20;99.90;;;3.19;100.00;99486.53;5016190;28;20544;-79
2022/03/23 04:42:14;;;;;;;14.40;8.70;;;2.20;99.90;;;3.15;100.00;99491.09;5016339;28;20454;-79
2022/03/23 04:44:44;;;;;;;16.93;9.00;;;2.30;99.90;;;3.07;100.00;99495.94;5020055;28;20964;-79
2022/03/23 04:47:15;;;;;;;15.30;8.77;;;2.30;99.80;;;3.09;100.00;99495.84;5017391;28;20512;-79
2022/03/23 04:49:45;;;;;;;15.13;8.53;;;2.20;99.90;;;3.08;100.00;99499.34;5018933;28;20549;-79
2022/03/23 04:52:14;;;;;;;16.33;9.40;;;2.20;99.90;;;3.08;100.00;99499.34;5012086;28;20534;-79
2022/03/23 04:54:46;;;;;;;24.27;9.20;;;2.20;99.90;;;3.05;100.00;99493.44;5016298;28;20477;-79
2022/03/23 04:57:19;;;;;;;16.80;9.17;;;2.20;99.90;;;3.00;100.00;99492.13;5014658;28;21003;-79
2022/03/23 04:59:49;;;;;;;14.50;9.30;;;2.30;99.90;;;2.94;100.00;99495.94;5016338;28;20815;-76
2022/03/23 05:02:19;;;;;;;15.77;8.50;;;2.20;99.90;;;2.93;100.00;99501.22;5014468;28;21474;-79
2022/03/23 05:04:49;;;;;;;16.77;9.03;;;2.10;99.90;;;2.95;100.00;99494.19;5014485;28;20994;-79
2022/03/23 05:07:19;;;;;;;14.93;9.17;;;2.10;99.90;;;2.96;100.00;99495.84;5014010;28;20506;-79
2022/03/23 05:09:51;;;;;;;19.80;9.80;;;2.10;99.90;;;2.95;100.00;99500.16;5014688;28;21020;-69
2022/03/23 05:12:21;;;;;;;16.30;9.23;;;2.10;99.90;;;2.96;100.00;99511.34;5013949;28;20458;-68
2022/03/23 05:14:51;;;;;;;14.57;8.33;;;2.10;99.90;;;2.96;100.00;99501.00;5016502;28;20487;-68
2022/03/23 05:17:20;;;;;;;13.60;8.97;;;2.00;99.90;;;2.94;100.00;99506.28;5011138;28;20465;-68
2022/03/23 05:19:53;;;;;;;16.97;9.50;;;2.00;99.90;;;2.91;100.00;99503.09;5014241;28;20572;-68
2022/03/23 05:22:24;;;;;;;17.87;10.33;;;2.00;99.90;;;2.86;100.00;99505.97;5013080;28;20591;-68
2022/03/23 05:24:57;;;;;;;24.03;10.67;;;1.90;99.90;;;2.88;100.00;99511.03;5011292;28;20463;-72
2022/03/23 05:27:27;;;;;;;15.07;9.13;;;2.00;99.90;;;2.83;100.00;99503.59;5014268;28;20475;-68
2022/03/23 05:29:57;;;;;;;17.90;9.40;;;2.10;99.90;;;2.84;100.00;99507.00;5014244;28;20497;-68
2022/03/23 05:32:27;;;;;;;18.17;9.50;;;2.00;99.90;;;2.83;100.00;99506.16;5018654;28;20468;-68
2022/03/23 05:34:56;;;;;;;14.70;9.40;;;2.00;99.90;;;2.82;100.00;99504.50;5018299;28;20898;-68
2022/03/23 05:37:27;;;;;;;18.23;9.23;;;1.90;99.90;;;2.82;100.00;99504.50;5017344;28;20515;-68
2022/03/23 05:39:58;;;;;;;15.53;8.93;;;1.90;99.90;;;2.82;100.00;99507.09;5018816;28;20535;-68
2022/03/23 05:42:29;;;;;;;20.10;9.60;;;1.90;99.90;;;2.83;100.00;99510.50;5019467;28;20454;-68
2022/03/23 05:44:58;;;;;;;14.60;8.60;;;1.80;99.90;;;2.82;100.00;99514.00;5016910;28;20459;-68
2022/03/23 05:47:26;;;;;;;14.50;8.70;;;1.80;99.90;;;2.79;100.00;99511.63;5016723;28;21078;-68
2022/03/23 05:49:55;;;;;;;14.20;8.67;;;2.00;99.90;;;2.79;100.00;99519.38;5017251;28;20459;-68
2022/03/23 05:52:24;;;;;;;17.20;9.10;;;1.90;99.90;;;2.80;100.00;99523.63;5016129;28;20454;-68
2022/03/23 05:54:54;;;;;;;17.10;8.77;;;1.90;99.90;;;2.81;100.00;99522.72;5014986;28;20490;-68
2022/03/23 05:57:24;;;;;;;19.00;9.40;;;1.90;99.90;;;2.80;100.00;99521.03;5015776;28;20494;-68
2022/03/23 05:59:54;;;;;;;16.53;8.47;;;2.00;99.90;;;2.76;100.00;99522.16;5018862;28;20442;-68
2022/03/23 06:02:23;;;;;;;17.17;8.97;;;2.00;99.90;;;2.74;100.00;99529.22;5017511;28;20470;-68
2022/03/23 06:04:55;;;;;;;12.67;8.20;;;1.90;99.90;;;2.75;100.00;99525.69;5017960;28;20991;-68
2022/03/23 06:07:25;;;;;;;16.40;9.13;;;1.90;99.90;;;2.75;100.00;99530.84;5018297;28;20525;-68
2022/03/23 06:09:55;;;;;;;13.90;7.90;;;1.90;99.90;;;2.72;100.00;99528.47;5017918;28;20455;-68
2022/03/23 06:12:27;;;;;;;16.70;9.20;;;1.90;99.90;;;2.72;100.00;99526.72;5013632;28;20466;-68
2022/03/23 06:14:57;;;;;;;17.43;9.97;;;1.90;99.90;;;2.70;100.00;99531.16;5017073;28;20463;-68
2022/03/23 06:17:27;;;;;;;15.43;9.37;;;2.00;99.90;;;2.71;100.00;99526.84;5015414;28;20450;-68
2022/03/23 06:19:56;;;;;;;20.63;9.60;;;1.90;99.90;;;2.69;100.00;99528.66;5017283;28;20454;-68
2022/03/23 06:22:27;;;;;;;13.90;8.63;;;1.90;99.90;;;2.72;100.00;99534.47;5015307;28;21050;-68
2022/03/23 06:24:57;;;;;;;14.10;8.17;;;1.90;99.90;;;2.76;100.00;99533.34;5016063;28;20440;-69
2022/03/23 06:27:29;;;;;;;17.30;10.03;;;1.90;99.90;;;2.82;100.00;99532.09;5013041;28;21124;-68
2022/03/23 06:29:59;;;;;;;21.33;9.60;;;1.90;99.90;;;2.85;100.00;99537.88;5014749;28;20843;-69
2022/03/23 06:32:29;;;;;;;14.90;8.90;;;1.90;99.90;;;2.89;100.00;99543.66;5015558;28;20997;-68
2022/03/23 06:35:00;;;;;;;12.60;8.13;;;2.00;99.90;;;2.90;100.00;99537.59;5013203;28;20560;-68
2022/03/23 06:37:31;;;;;;;17.10;10.17;;;1.90;99.90;;;2.94;100.00;99539.88;5012186;28;20462;-68
2022/03/23 06:40:01;;;;;;;14.13;8.80;;;2.00;99.90;;;2.98;100.00;99540.50;5012630;28;20881;-68
2022/03/23 06:42:31;;;;;;;18.63;9.60;;;2.00;99.90;;;3.04;100.00;99535.75;5011545;28;20463;-68
2022/03/23 06:45:02;;;;;;;16.43;9.20;;;2.10;99.90;;;3.09;100.00;99547.53;5011936;28;20459;-68
2022/03/23 06:47:32;;;;;;;16.47;9.67;;;2.10;99.90;;;3.10;100.00;99542.25;5012878;28;20587;-68
2022/03/23 06:50:01;;;;;;;15.13;8.97;;;2.10;99.90;;;3.16;100.00;99546.19;5011556;28;20469;-68
2022/03/23 06:52:33;;;;;;;12.13;8.80;;;2.30;99.90;;;3.18;100.00;99545.16;5011172;28;20988;-68
2022/03/23 06:55:02;;;;;;;14.80;8.97;;;2.20;99.90;;;3.22;100.00;99544.00;5012136;28;20473;-68
2022/03/23 06:57:34;;;;;;;13.70;9.40;;;2.30;99.90;;;3.24;100.00;99542.13;5011622;28;20458;-68
2022/03/23 07:00:12;;;;;;;13.97;8.37;;;2.30;99.90;;;3.25;100.00;99553.31;5011085;28;20495;-67
2022/03/23 07:02:44;;;;;;;14.57;8.17;;;2.30;99.90;;;3.28;100.00;99541.00;5013140;28;20498;-68
2022/03/23 07:05:16;;;;;;;18.20;8.23;;;2.20;99.90;;;3.33;100.00;99551.03;5012078;28;20450;-68
2022/03/23 07:10:36;;;;;;;16.00;9.10;;;2.40;99.90;;;3.41;100.00;99543.56;5010474;28;20454;-68
2022/03/23 07:13:08;;;;;;;13.63;8.47;;;2.50;99.90;;;3.43;100.00;99541.72;5012815;28;20519;-68
2022/03/23 07:15:37;;;;;;;14.43;8.40;;;2.60;99.90;;;3.49;100.00;99546.47;5013243;28;20485;-68
2022/03/23 07:18:07;;;;;;;19.13;9.43;;;2.70;99.90;;;3.57;100.00;99548.53;5011381;28;20550;-69
2022/03/23 07:20:37;;;;;;;17.73;9.90;;;2.70;99.90;;;3.64;100.00;99539.41;5014457;28;20470;-68
2022/03/23 07:23:07;;;;;;;15.13;9.60;;;2.80;99.90;;;3.71;100.00;99551.81;5011163;28;20545;-68
2022/03/23 07:25:36;;;;;;;14.83;9.10;;;2.80;99.90;;;3.75;100.00;99550.66;5012090;28;20526;-68
2022/03/23 07:28:07;;;;;;;16.73;8.50;;;2.90;99.90;;;3.81;100.00;99541.66;5011556;28;20586;-68
2022/03/23 07:30:40;;;;;;;18.17;10.40;;;2.90;99.90;;;3.86;100.00;99555.06;5016118;28;20468;-69
2022/03/23 07:33:10;;;;;;;14.10;8.97;;;3.00;99.90;;;3.92;100.00;99552.88;5016379;28;20465;-69
2022/03/23 07:35:40;;;;;;;17.43;9.50;;;3.10;99.90;;;3.99;100.00;99550.72;5011982;28;20471;-68
2022/03/23 07:38:11;;;;;;;25.23;9.10;;;3.10;99.90;;;4.03;100.00;99549.53;5011889;28;20975;-68
2022/03/23 07:40:41;;;;;;;17.93;9.10;;;3.20;99.90;;;4.09;100.00;99541.34;5013098;28;20465;-68
2022/03/23 07:43:12;;;;;;;13.40;9.50;;;3.20;99.90;;;4.13;100.00;99537.59;5011921;28;20466;-68
2022/03/23 07:45:43;;;;;;;16.93;8.33;;;3.20;99.90;;;4.19;100.00;99541.53;5012688;28;20474;-69
2022/03/23 07:48:15;;;;;;;14.90;9.07;;;3.30;99.90;;;4.24;100.00;99535.06;5014067;28;20534;-68
2022/03/23 07:50:46;;;;;;;24.70;8.67;;;3.40;99.90;;;4.28;100.00;99530.50;5014602;28;20469;-68
2022/03/23 07:53:17;;;;;;;18.20;9.20;;;3.40;99.90;;;4.33;100.00;99534.44;5012503;28;20554;-68
2022/03/23 07:55:47;;;;;;;14.87;8.83;;;3.40;99.90;;;4.38;100.00;99524.53;5013244;28;20592;-69
2022/03/23 07:58:21;;;;;;;17.23;8.73;;;3.50;99.90;;;4.44;100.00;99534.44;5011923;28;20492;-68
2022/03/23 08:00:52;;;;;;;15.93;8.90;;;3.50;99.90;;;4.50;100.00;99536.63;5013881;28;20475;-69
2022/03/23 08:03:21;;;;;;;18.70;9.10;;;3.60;99.90;;;4.56;100.00;99533.56;5015605;28;21120;-69
2022/03/23 08:05:51;;;;;;;15.60;8.87;;;3.70;99.90;;;4.64;100.00;99539.94;5015495;28;20873;-69
2022/03/23 08:08:23;;;;;;;13.87;8.00;;;3.70;99.90;;;4.69;100.00;99535.25;5015704;28;20508;-69
2022/03/23 08:10:54;;;;;;;12.87;8.83;;;3.80;99.90;;;4.76;100.00;99531.25;5017055;28;20448;-68
2022/03/23 08:13:26;;;;;;;35.17;19.17;;;3.90;99.90;;;4.84;100.00;99536.72;5014200;28;20462;-71
2022/03/23 08:15:56;;;;;;;17.07;9.73;;;4.00;99.90;;;4.90;100.00;99534.47;5014157;28;20460;-69
2022/03/23 08:18:26;;;;;;;18.67;9.60;;;4.10;99.90;;;4.97;100.00;99529.66;5013249;28;20466;-68
2022/03/23 08:20:57;;;;;;;18.57;10.03;;;4.10;99.90;;;5.02;100.00;99532.75;5014743;28;20468;-68
2022/03/23 08:23:26;;;;;;;15.60;8.73;;;4.20;99.90;;;5.09;100.00;99526.16;5013145;28;20473;-69
2022/03/23 08:25:57;;;;;;;13.57;8.90;;;4.30;99.90;;;5.16;100.00;99529.94;5016011;28;20492;-69
2022/03/23 08:28:27;;;;;;;19.60;9.20;;;4.30;99.90;;;5.24;100.00;99526.78;5012814;28;20493;-68
2022/03/23 08:30:57;;;;;;;20.20;7.97;;;4.40;99.90;;;5.31;100.00;99528.75;5015564;28;20477;-69
2022/03/23 08:33:30;;;;;;;13.40;9.07;;;4.50;99.90;;;5.38;100.00;99519.56;5016005;28;21542;-69
2022/03/23 08:35:59;;;;;;;17.33;9.60;;;4.60;99.90;;;5.48;100.00;99523.09;5015126;28;20524;-69
2022/03/23 08:38:28;;;;;;;23.70;7.03;;;4.60;99.90;;;5.55;100.00;99524.28;5015640;28;20478;-68
2022/03/23 08:40:57;;;;;;;14.57;7.87;;;4.80;99.90;;;5.64;100.00;99519.34;5016620;28;20548;-69
2022/03/23 08:43:29;;;;;;;14.07;8.60;;;4.90;99.90;;;5.72;100.00;99516.97;5015395;28;20466;-69
2022/03/23 08:45:59;;;;;;;18.93;9.20;;;4.90;99.90;;;5.80;100.00;99512.00;5015546;28;20491;-69
2022/03/23 08:48:29;;;;;;;12.83;7.83;;;5.00;99.90;;;5.89;100.00;99509.53;5016718;28;20936;-69
2022/03/23 08:51:00;;;;;;;14.60;8.00;;;5.10;99.90;;;5.98;100.00;99507.97;5015233;28;20468;-69
2022/03/23 08:53:30;;;;;;;15.03;8.00;;;5.20;99.90;;;6.08;100.00;99508.88;5017006;28;20468;-69
2022/03/23 08:56:00;;;;;;;15.93;8.00;;;5.40;99.90;;;6.18;100.00;99515.00;5016582;28;20469;-69
2022/03/23 08:58:31;;;;;;;85.73;39.63;;;5.50;99.90;;;6.26;100.00;99506.59;5015049;28;21356;-70
2022/03/23 09:01:02;;;;;;;60.53;24.17;;;5.60;99.90;;;6.34;100.00;99497.25;5015914;28;20557;-69
2022/03/23 09:03:33;;;;;;;27.10;10.37;;;5.70;99.90;;;6.43;100.00;99500.84;5015714;28;20519;-68
2022/03/23 09:06:04;;;;;;;15.93;8.80;;;5.80;99.90;;;6.51;100.00;99504.50;5015309;28;20476;-69
2022/03/23 09:08:38;;;;;;;17.20;9.70;;;5.90;99.90;;;6.58;100.00;99505.63;5014242;28;20484;-69
2022/03/23 09:11:08;;;;;;;21.57;8.60;;;6.00;99.90;;;6.72;100.00;99503.69;5015883;28;20478;-69
2022/03/23 09:13:40;;;;;;;15.27;6.97;;;6.10;99.90;;;6.83;100.00;99503.63;5012291;28;20503;-69
2022/03/23 09:16:10;;;;;;;16.23;8.60;;;6.20;99.90;;;6.93;100.00;99499.31;5015761;28;20999;-70
2022/03/23 09:18:41;;;;;;;11.70;7.40;;;6.40;99.90;;;7.01;100.00;99500.28;5013071;28;21390;-69
2022/03/23 09:21:11;;;;;;;15.20;8.27;;;6.50;99.90;;;7.11;100.00;99496.94;5013552;28;20471;-69
2022/03/23 09:23:41;;;;;;;13.70;7.90;;;6.60;99.90;;;7.19;99.77;99497.91;5014524;28;20516;-69
2022/03/23 09:26:12;;;;;;;13.67;7.50;;;6.70;99.90;;;7.30;98.75;99497.84;5012377;28;20459;-69
2022/03/23 09:28:43;;;;;;;11.33;7.10;;;6.80;99.80;;;7.43;98.60;99495.84;5013176;28;20481;-69
2022/03/23 09:31:13;;;;;;;16.77;8.00;;;6.90;99.60;;;7.53;97.66;99499.28;5013879;28;20458;-69
2022/03/23 09:33:44;;;;;;;12.47;7.37;;;7.00;99.70;;;7.69;96.97;99495.38;5015317;28;20495;-69
2022/03/23 09:37:47;;;;;;;142.40;61.77;;;7.10;99.30;;;7.83;96.37;99495.84;5014186;28;21236;-70
2022/03/23 09:39:13;;;;;;;36.43;12.20;;;7.30;99.30;;;7.97;95.88;99494.63;5014913;28;20579;-69
2022/03/23 09:41:45;;;;;;;20.20;8.53;;;7.50;99.40;;;8.10;95.39;99484.75;5014898;28;20565;-69
2022/03/23 09:44:17;;;;;;;14.37;8.43;;;7.60;99.20;;;8.20;94.28;99485.59;5016201;28;20459;-70
2022/03/23 09:46:47;;;;;;;14.80;9.60;;;7.70;99.10;;;8.32;92.89;99479.34;5014485;28;20490;-70
2022/03/23 09:49:17;;;;;;;16.80;8.63;;;7.90;98.70;;;8.43;91.42;99474.00;5015020;28;20526;-70
2022/03/23 09:51:51;;;;;;;13.80;8.50;;;8.00;98.40;;;8.64;85.81;99483.44;5015037;28;20583;-69
2022/03/23 09:54:22;;;;;;;15.20;8.33;;;8.30;96.90;;;8.88;81.93;99475.97;4981609;28;20488;-70
2022/03/23 09:56:51;;;;;;;14.07;8.50;;;8.50;95.80;;;9.10;79.34;99475.63;4974821;28;20460;-69
2022/03/23 09:59:23;;;;;;;23.27;8.10;;;8.80;95.50;;;9.28;78.20;99481.75;4973053;28;20476;-69
2022/03/23 10:02:46;;;;;;;16.23;8.90;;;8.90;95.20;;;9.48;75.99;99478.09;4976189;28;20464;-69
2022/03/23 10:06:19;;;;;;;183.70;83.60;;;9.10;94.90;;;9.70;74.93;99473.44;4977212;28;20955;-70
2022/03/23 10:09:22;;;;;;;27.97;14.60;;;9.30;94.70;;;9.85;74.18;99477.22;4963010;28;20871;-70
2022/03/23 10:13:13;;;;;;;17.23;8.83;;;9.40;94.60;;;10.02;71.96;99471.19;4973597;28;20472;-69
2022/03/23 10:16:43;;;;;;;29.47;10.20;;;9.50;94.10;;;10.13;71.13;99469.16;4897674;29;20459;-69
2022/03/23 10:19:14;;;;;;;14.00;7.90;;;9.70;93.60;;;10.24;69.92;99468.16;4889065;29;20483;-69
2022/03/23 10:21:45;;;;;;;21.83;10.00;;;9.90;93.40;;;10.41;68.30;99469.13;4964847;28;21046;-69
2022/03/23 10:24:36;;;;;;;19.43;9.30;;;10.00;92.30;;;10.62;68.07;99474.03;4973976;28;20467;-69
2022/03/23 10:27:14;;;;;;;21.67;10.03;;;10.20;92.60;;;10.85;62.98;99462.94;4975787;28;20471;-70
2022/03/23 10:29:48;;;;;;;217.60;92.43;;;10.50;90.80;;;11.08;62.60;99464.03;4973794;28;20924;-70
2022/03/23 10:32:20;;;;;;;28.33;11.70;;;10.60;90.30;;;11.29;60.60;99471.53;4977818;28;20585;-70
2022/03/23 10:34:54;;;;;;;19.67;10.33;;;10.80;90.00;;;11.37;60.02;99458.47;4979062;28;20444;-70
2022/03/23 10:37:29;;;;;;;19.47;10.30;;;10.90;90.10;;;11.42;60.08;99455.38;4978595;28;20463;-70
2022/03/23 10:40:02;;;;;;;16.77;9.13;;;11.00;90.20;;;11.46;60.66;99457.50;4978631;28;20804;-70
2022/03/23 10:42:34;;;;;;;18.07;10.20;;;11.00;90.40;;;11.54;59.88;99457.56;4977763;28;20508;-69
2022/03/23 10:45:16;;;;;;;27.30;9.50;;;11.20;90.30;;;11.72;58.07;99446.19;4978337;28;20535;-69
2022/03/23 10:47:48;;;;;;;25.87;9.80;;;11.30;89.30;;;11.80;58.78;99454.88;4961248;28;20545;-69
2022/03/23 10:50:20;;;;;;;19.90;9.40;;;11.40;89.90;;;11.95;56.39;99447.22;4978164;28;20492;-69